• Join FlightAware (Why Join?)
  • Login
  • US Flag 
04:05PM EDT


 

Airport Tracker/Info


-or-


 

Live Flight TrackerFlight Track Log ✈ AWE997 ✈ 17-Apr-2013 ✈ KORD - KPHL

Flight Track Log - Related Links

Times and Time Zones

All times are in EDT time to prevent confusion due to time zone crossing. See the AWE997 flight status page for this flight to view local times or setup timezone preferences in your user account.

Time Position Orientation Groundspeed Altitude Reporting Facility
EDT Latitude Longitude Course Direction KTS MPH feet Rate Location/Type
11:22AM 42.0167 -87.8167 85° East 165 190 3,900  Level Chicago TRACON
11:23AM 42.0500 -87.7500 56° Northeast 253 291 5,000 1,980 Climbing Chicago TRACON
11:24AM 41.9351 -87.1575 95° East  Level FlightAware Approximate
11:24AM 42.0833 -87.6500 66° East 277 319 7,900  Level Chicago TRACON
11:25AM 41.9333 -86.9715 90° East  Level FlightAware Approximate
11:26AM 41.9388 -86.7858 85° East  Level FlightAware Approximate
11:26AM 42.1269 -87.5031 68° East 306 352 11,200  Level Chicago Center
11:27AM 41.9492 -86.6292 85° East  Level FlightAware Approximate
11:27AM 42.1553 -87.3797 73° East 337 388 13,200  Level Chicago Center
11:28AM 42.1864 -87.2503 72° East 359 413 16,000 2,280 Climbing Chicago Center
11:29AM 42.2181 -87.1242 71° East 356 410 17,900 1,500 Climbing Chicago Center
11:30AM 42.2464 -86.9864 74° East 378 435 19,100 1,260 Climbing Chicago Center
11:31AM 42.2453 -86.8439 91° East 376 433 20,500 1,020 Climbing Chicago Center
11:32AM 42.2311 -86.6756 96° East 417 480 21,300 1,260 Climbing Chicago Center
11:33AM 42.2172 -86.5078 96° East 448 516 23,100 1,500 Climbing Chicago Center
11:34AM 42.2019 -86.3386 97° East 454 522 24,400 1,020 Climbing Chicago Center
11:35AM 42.1831 -86.1628 98° East 471 542 25,300 1,020 Climbing Chicago Center
11:36AM 42.1594 -85.9828 100° East 485 558 26,500 1,260 Climbing Chicago Center
11:37AM 42.1358 -85.8000 100° East 492 566 28,000 1,260 Climbing Chicago Center
11:38AM 42.1122 -85.6175 100° East 493 567 29,200 1,440 Climbing Chicago Center
11:39AM 42.0833 -85.3997 100° East 490 564 31,000 1,200 Climbing Chicago Center
11:39AM 42.0750 -85.3144 97° East 495 570 31,000  Level Cleveland Center
11:40AM 42.0469 -85.1331 102° East 489 563 31,000  Level Cleveland Center
11:41AM 42.0225 -84.9553 100° East 489 563 31,000  Level Cleveland Center
11:42AM 41.9981 -84.7719 100° East 489 563 31,000  Level Cleveland Center
11:43AM 41.9692 -84.5911 102° East 489 563 31,000  Level Cleveland Center
11:44AM 41.9461 -84.4139 100° East 489 563 31,000  Level Cleveland Center
11:45AM 41.9158 -84.2556 104° East 489 563 31,000  Level Cleveland Center
11:46AM 41.8919 -84.0814 100° East 489 563 31,000  Level Cleveland Center
11:47AM 41.8661 -83.9042 101° East 484 557 31,000  Level Cleveland Center
11:48AM 41.8378 -83.7214 102° East 484 557 31,000  Level Cleveland Center
11:49AM 41.8075 -83.5222 101° East 489 563 31,000  Level Cleveland Center
11:50AM 41.7808 -83.3456 101° East 489 563 31,000  Level Cleveland Center
11:51AM 41.7536 -83.1661 101° East 489 563 31,000  Level Cleveland Center
11:52AM 41.7242 -82.9869 102° East 489 563 31,000  Level Cleveland Center
11:53AM 41.6964 -82.8078 102° East 489 563 31,000  Level Cleveland Center
11:54AM 41.6769 -82.6292 98° East 489 563 31,000  Level Cleveland Center
11:55AM 41.6592 -82.4508 98° East 489 563 31,000  Level Cleveland Center
11:56AM 41.6392 -82.2669 98° East 484 557 31,000  Level Cleveland Center
11:57AM 41.6208 -82.0858 98° East 489 563 31,000  Level Cleveland Center
11:58AM 41.6000 -81.9047 99° East 489 563 31,000  Level Cleveland Center
11:59AM 41.5811 -81.7211 98° East 489 563 31,100  Climbing Cleveland Center
12:00PM 41.5619 -81.5600 99° East 489 563 31,000 -60 Descending Cleveland Center
12:01PM 41.5422 -81.3822 98° East 483 556 31,000  Level Cleveland Center
12:02PM 41.5081 -81.2042 104° East 483 556 31,000  Level Cleveland Center
12:03PM 41.4358 -81.0567 123° Southeast 473 544 31,000  Level Cleveland Center
12:04PM 41.3383 -80.9122 132° Southeast 478 550 31,000 -300 Level Cleveland Center
12:05PM 41.2447 -80.7875 135° Southeast 478 550 30,400 -840 Descending Cleveland Center
12:06PM 41.1511 -80.6575 134° Southeast 483 556 29,400 -720 Descending Cleveland Center
12:07PM 41.0781 -80.5308 127° Southeast 483 556 29,000 -240 Descending Cleveland Center
12:08PM 41.0114 -80.3767 120° Southeast 483 556 29,000  Level Cleveland Center
12:09PM 40.9422 -80.2203 120° Southeast 483 556 29,000  Level Cleveland Center
12:10PM 40.8644 -80.0533 122° Southeast 489 563 29,000 -360 Level Cleveland Center
12:11PM 40.7989 -79.8975 119° Southeast 489 563 28,300 -900 Descending Cleveland Center
12:12PM 40.7519 -79.7253 110° East 483 556 27,300 -660 Descending Cleveland Center
12:13PM 40.7086 -79.5478 108° East 495 570 27,000 -180 Descending Cleveland Center
12:14PM 40.6653 -79.3706 108° East 505 581 27,000  Level Cleveland Center
12:15PM 40.6236 -79.1961 107° East 500 575 27,000  Level Cleveland Center
12:16PM 40.5775 -79.0194 109° East 500 575 27,000  Level Cleveland Center
12:17PM 40.5356 -78.8483 108° East 500 575 27,000 -660 Level Cleveland Center
12:18PM 40.5078 -78.6717 102° East 500 575 25,700 -780 Descending Cleveland Center
12:20PM 40.4731 -78.3756 99° East 489 563 25,000 -300 Descending New York Center
12:21PM 40.4508 -78.2011 99° East 489 563 25,000  Level New York Center
12:22PM 40.4319 -78.0356 98° East 476 548 25,000  Level New York Center
12:23PM 40.4069 -77.8639 101° East 470 541 25,000 -180 Level New York Center
12:24PM 40.3856 -77.6953 99° East 470 541 24,700 -660 Descending New York Center
12:25PM 40.3642 -77.5242 99° East 475 547 23,700 -960 Descending New York Center
12:26PM 40.3419 -77.3642 100° East 468 539 22,800 -900 Descending New York Center
12:27PM 40.3208 -77.2206 101° East 455 524 21,900 -960 Descending New York Center
12:28PM 40.2961 -77.0575 101° East 455 524 20,900 -1,020 Descending New York Center
12:29PM 40.2606 -76.9047 107° East 450 518 19,900 -960 Descending New York Center
12:30PM 40.2283 -76.7578 106° East 433 498 19,000 -1,320 Descending New York Center
12:31PM 40.1908 -76.5914 106° East 427 491 17,300 -1,980 Descending New York Center
12:32PM 40.1667 -76.4481 102° East 417 480 15,100 -2,340 Descending New York Center
12:33PM 40.1486 -76.3025 99° East 409 471 12,700 -2,340 Descending New York Center
12:34PM 40.1403 -76.2275 98° East 403 464 11,500 -1,860 Descending FAA TRACON SMA TRACON (SMA)
12:34PM 40.1353 -76.1808 98° East 398 458 11,100 -1,080 Descending FAA TRACON SMA TRACON (SMA)
12:34PM 40.1275 -76.1281 101° East 370 426 10,800 -900 Descending FAA TRACON SMA TRACON (SMA)
12:35PM 40.1236 -76.0892 97° East 354 407 10,500 -780 Descending FAA TRACON SMA TRACON (SMA)
12:35PM 40.1183 -76.0519 100° East 339 390 10,300 -780 Descending FAA TRACON SMA TRACON (SMA)
12:35PM 40.1144 -76.0083 97° East 328 377 10,000 -1,080 Descending FAA TRACON SMA TRACON (SMA)
12:36PM 40.1069 -75.9736 106° East 318 366 9,600 -1,200 Descending FAA TRACON SMA TRACON (SMA)
12:36PM 40.0900 -75.9478 131° Southeast 307 353 9,200 -1,680 Descending FAA TRACON SMA TRACON (SMA)
12:36PM 40.0639 -75.9247 146° Southeast 307 353 8,500 -1,800 Descending FAA TRACON SMA TRACON (SMA)
12:37PM 40.0408 -75.9056 148° Southeast 316 364 8,000 -1,380 Descending FAA TRACON SMA TRACON (SMA)
12:37PM 40.0203 -75.8872 146° Southeast 301 346 7,600 -1,500 Descending FAA TRACON SMA TRACON (SMA)
12:37PM 39.9942 -75.8656 148° Southeast 298 343 7,000 -1,500 Descending FAA TRACON SMA TRACON (SMA)
12:38PM 39.9733 -75.8478 147° Southeast 297 342 6,600 -1,080 Descending FAA TRACON SMA TRACON (SMA)
12:38PM 39.9511 -75.8294 148° Southeast 294 338 6,300 -1,380 Descending FAA TRACON SMA TRACON (SMA)
12:38PM 39.9253 -75.8075 147° Southeast 289 333 5,700 -1,680 Descending FAA TRACON SMA TRACON (SMA)
12:39PM 39.9061 -75.7906 146° Southeast 282 325 5,200 -1,080 Descending FAA TRACON SMA TRACON (SMA)
12:39PM 39.8867 -75.7731 145° Southeast 281 323 5,000 -300 Descending FAA TRACON SMA TRACON (SMA)
12:39PM 39.8675 -75.7467 133° Southeast 262 302 5,000 -420 Level FAA TRACON SMA TRACON (SMA)
12:40PM 39.8622 -75.7208 105° East 257 296 4,700 -1,020 Descending FAA TRACON SMA TRACON (SMA)
12:40PM 39.8558 -75.6869 104° East 246 283 4,300 -1,320 Descending FAA TRACON SMA TRACON (SMA)
12:40PM 39.8522 -75.6603 100° East 242 278 3,900 -1,320 Descending FAA TRACON SMA TRACON (SMA)
12:41PM 39.8525 -75.6353 89° East 233 268 3,500 -1,080 Descending FAA TRACON SMA TRACON (SMA)
12:41PM 39.8503 -75.6089 96° East 233 268 3,200 -780 Descending FAA TRACON SMA TRACON (SMA)
12:41PM 39.8486 -75.5764 94° East 233 268 3,000 -300 Descending FAA TRACON SMA TRACON (SMA)
12:42PM 39.8467 -75.5539 96° East 231 266 3,000 -300 Level FAA TRACON SMA TRACON (SMA)
12:42PM 39.8458 -75.5261 92° East 228 262 2,800 -1,080 Descending FAA TRACON SMA TRACON (SMA)
12:42PM 39.8442 -75.4950 94° East 225 259 2,300 -1,380 Descending FAA TRACON SMA TRACON (SMA)
12:43PM 39.8425 -75.4703 95° East 224 258 1,900 -1,200 Descending FAA TRACON SMA TRACON (SMA)